»·PEaware :: N915TB KDRO-KCLM

N915TB :: KDRO-KCLM

FLIGHT INFORMATION

Flight Status: Arrived
Operator: Privately registered:
United States
More flights under this callsign
Pilot: Jake M. (20491)
Aircraft: SOCATA TBM-900
(TBM9)
More flights by this aircraft type
Origin: KDRO Durango-La Plata Co
United States
Destination: KCLM Fairchild Intl
United States
More flights between these airports :: More routes between these airports
Route: +BDROC BYI Q154 JELTI SEA
File this flight plan on PilotEdge
Remarks: RMK / SIMBRIEF
Altitude:
(Current/Filed)
28,000ft
Speed:
(Current/Filed)
315kts
Departed: 07-May-19 06:04 PM
Arrived: 07-May-19 09:42 PM
Distance/Time
Traveled:
954nm/3:37
Distance/Time
To Go:
Arrived

Flight Plot

Page will automatically refresh every two minutes.

Flight plan parsing failed; only flown route is shown


Map Options




Map Legend


Flown Route
Filed Route
Departure Airport
Arrival Airport
Navaid (VOR, NDB)
Fix

Horizontal Profiles

Position Reports

Time Latitude Longitude Heading Altitude Ground
Speed
07-May-19 17:54 37.154037 -107.754017 312 6688ft 0kts
07-May-19 17:55 37.154037 -107.754017 312 6688ft 0kts
07-May-19 17:56 37.154037 -107.754017 312 6688ft 0kts
07-May-19 17:57 37.154037 -107.754017 312 6688ft 0kts
07-May-19 17:58 37.154037 -107.754017 312 6688ft 0kts
07-May-19 17:59 37.154037 -107.754017 312 6688ft 0kts
07-May-19 18:00 37.154037 -107.754017 312 6688ft 0kts
07-May-19 18:01 37.153846 -107.754049 132 6688ft 7kts
07-May-19 18:02 37.158703 -107.748619 38 6688ft 31kts
07-May-19 18:03 37.145468 -107.759308 219 6908ft 117kts
07-May-19 18:04 37.155775 -107.788805 358 8564ft 157kts
07-May-19 18:05 37.196042 -107.803250 328 10467ft 153kts
07-May-19 18:06 37.234370 -107.827072 328 12201ft 156kts
07-May-19 18:07 37.273399 -107.851582 327 13723ft 163kts
07-May-19 18:08 37.314285 -107.877320 328 15136ft 169kts
07-May-19 18:09 37.356945 -107.904205 328 16564ft 176kts
07-May-19 18:10 37.401514 -107.932307 327 18354ft 182kts
07-May-19 18:11 37.447374 -107.961292 327 19971ft 188kts
07-May-19 18:12 37.495133 -107.991493 328 21612ft 195kts
07-May-19 18:13 37.540533 -108.020261 328 23231ft 198kts
07-May-19 18:14 37.592243 -108.053090 329 24825ft 204kts
07-May-19 18:15 37.643347 -108.085584 329 26201ft 209kts
07-May-19 18:16 37.695746 -108.118930 330 27454ft 216kts
07-May-19 18:17 37.752313 -108.154914 332 28212ft 255kts
07-May-19 18:18 37.821148 -108.198850 332 28193ft 296kts
07-May-19 18:19 37.896585 -108.247176 332 28184ft 314kts
07-May-19 18:20 37.974637 -108.297283 331 28152ft 320kts
07-May-19 18:21 38.054407 -108.348587 331 28120ft 323kts
07-May-19 18:22 38.130110 -108.397392 331 28074ft 323kts
07-May-19 18:23 38.209063 -108.448421 331 28040ft 322kts
07-May-19 18:24 38.288474 -108.499871 331 28018ft 321kts
07-May-19 18:25 38.367670 -108.551311 331 28036ft 319kts
07-May-19 18:26 38.445876 -108.602644 326 28030ft 315kts
07-May-19 18:27 38.508732 -108.673004 315 28036ft 311kts
07-May-19 18:28 38.571858 -108.746861 315 28035ft 310kts
07-May-19 18:29 38.634633 -108.820500 315 28004ft 309kts
07-May-19 18:30 38.695620 -108.892191 315 27972ft 308kts
07-May-19 18:31 38.757988 -108.965721 315 27954ft 307kts
07-May-19 18:33 38.820619 -109.039715 315 27957ft 305kts
07-May-19 18:34 38.883035 -109.113650 315 27960ft 304kts
07-May-19 18:35 38.945034 -109.187291 315 27963ft 303kts
07-May-19 18:36 39.006969 -109.261012 315 27963ft 303kts
07-May-19 18:37 39.069013 -109.335062 315 27963ft 302kts
07-May-19 18:38 39.129429 -109.407346 315 27961ft 301kts
07-May-19 18:39 39.191079 -109.481290 315 27962ft 301kts
07-May-19 18:40 39.252247 -109.554840 315 27962ft 300kts
07-May-19 18:41 39.313511 -109.628693 316 27962ft 299kts
07-May-19 18:42 39.372598 -109.700098 315 27963ft 299kts
07-May-19 18:43 39.431173 -109.776809 312 27965ft 298kts
07-May-19 18:44 39.488597 -109.853796 312 27963ft 298kts
07-May-19 18:45 39.546212 -109.931249 312 27974ft 297kts
07-May-19 18:46 39.603447 -110.008386 312 28017ft 296kts
07-May-19 18:47 39.660363 -110.085299 312 28040ft 295kts
07-May-19 18:48 39.716955 -110.161938 312 28044ft 295kts
07-May-19 18:49 39.773857 -110.239231 312 28042ft 295kts
07-May-19 18:50 39.830186 -110.315921 312 28044ft 295kts
07-May-19 18:51 39.887002 -110.393477 312 28045ft 295kts
07-May-19 18:52 39.943639 -110.470975 312 28045ft 295kts
07-May-19 18:53 40.000310 -110.548735 312 28044ft 295kts
07-May-19 18:54 40.056918 -110.626597 312 28045ft 296kts
07-May-19 18:54 40.100993 -110.687363 311 28046ft 297kts
07-May-19 18:56 40.166740 -110.778227 311 28046ft 298kts
07-May-19 18:57 40.223630 -110.857086 311 28045ft 298kts
07-May-19 18:57 40.271100 -110.923054 310 28046ft 298kts
07-May-19 18:58 40.327837 -111.002062 310 28049ft 299kts
07-May-19 19:00 40.393824 -111.094223 310 28056ft 299kts
07-May-19 19:00 40.441012 -111.160328 310 28054ft 299kts
07-May-19 19:01 40.497737 -111.239954 310 28055ft 299kts
07-May-19 19:02 40.554307 -111.319588 310 28056ft 300kts
07-May-19 19:03 40.610921 -111.399491 310 28050ft 300kts
07-May-19 19:04 40.667783 -111.479934 310 28036ft 301kts
07-May-19 19:05 40.724726 -111.560755 310 28021ft 301kts
07-May-19 19:06 40.781324 -111.641278 310 28007ft 301kts
07-May-19 19:07 40.835615 -111.718722 309 28082ft 300kts
07-May-19 19:08 40.892044 -111.799435 309 28084ft 302kts
07-May-19 19:09 40.948636 -111.880600 309 28088ft 303kts
07-May-19 19:10 41.005961 -111.963041 309 28076ft 305kts
07-May-19 19:11 41.063555 -112.046103 309 28062ft 305kts
07-May-19 19:12 41.118300 -112.125265 309 28052ft 304kts
07-May-19 19:13 41.176028 -112.208961 309 28053ft 304kts
07-May-19 19:14 41.232463 -112.291020 310 28063ft 304kts
07-May-19 19:15 41.289407 -112.374047 310 28063ft 304kts
07-May-19 19:16 41.346496 -112.457523 310 28063ft 305kts
07-May-19 19:17 41.403604 -112.541252 310 28063ft 305kts
07-May-19 19:18 41.460646 -112.625130 310 28062ft 304kts
07-May-19 19:19 41.516588 -112.707620 310 28064ft 304kts
07-May-19 19:20 41.573417 -112.791655 310 28065ft 303kts
07-May-19 19:21 41.629951 -112.875503 310 28064ft 303kts
07-May-19 19:22 41.686462 -112.959523 310 28064ft 302kts
07-May-19 19:23 41.742552 -113.043191 311 28064ft 300kts
07-May-19 19:24 41.798190 -113.126396 311 28075ft 299kts
07-May-19 19:25 41.853540 -113.209406 311 28087ft 298kts
07-May-19 19:26 41.908801 -113.292515 312 28089ft 296kts
07-May-19 19:27 41.963717 -113.375339 312 28089ft 296kts
07-May-19 19:28 42.018265 -113.457836 312 28088ft 295kts
07-May-19 19:29 42.072760 -113.540484 312 28089ft 295kts
07-May-19 19:30 42.129385 -113.626607 313 28092ft 295kts
07-May-19 19:31 42.183260 -113.708778 312 28092ft 295kts
07-May-19 19:32 42.237429 -113.791636 312 28092ft 294kts
07-May-19 19:33 42.291573 -113.874691 312 28092ft 294kts
07-May-19 19:34 42.345532 -113.957687 312 28089ft 293kts
07-May-19 19:35 42.399299 -114.040671 313 28092ft 292kts
07-May-19 19:36 42.452910 -114.123568 313 28091ft 291kts
07-May-19 19:37 42.505887 -114.205761 313 28091ft 290kts
07-May-19 19:38 42.558814 -114.288104 313 28091ft 289kts
07-May-19 19:39 42.611713 -114.370638 313 28092ft 288kts
07-May-19 19:40 42.664200 -114.452756 313 28095ft 287kts
07-May-19 19:41 42.716276 -114.534456 313 28097ft 285kts
07-May-19 19:42 42.768081 -114.615960 314 28097ft 284kts
07-May-19 19:43 42.817728 -114.694281 313 28098ft 282kts
07-May-19 19:44 42.869350 -114.775949 314 28098ft 281kts
07-May-19 19:45 42.920203 -114.856622 314 28096ft 280kts
07-May-19 19:46 42.970914 -114.937278 314 28096ft 278kts
07-May-19 19:47 43.021010 -115.017201 315 28089ft 277kts
07-May-19 19:48 43.070925 -115.097067 316 28079ft 275kts
07-May-19 19:49 43.119335 -115.174705 318 28107ft 268kts
07-May-19 19:50 43.167697 -115.252440 318 28104ft 267kts
07-May-19 19:51 43.215696 -115.329815 319 28108ft 265kts
07-May-19 19:52 43.263506 -115.407112 319 28107ft 264kts
07-May-19 19:53 43.310859 -115.483872 319 28105ft 264kts
07-May-19 19:54 43.358068 -115.560609 320 28105ft 262kts
07-May-19 19:55 43.405080 -115.637207 320 28101ft 261kts
07-May-19 19:56 43.450996 -115.712223 320 28099ft 259kts
07-May-19 19:57 43.497283 -115.788040 320 28095ft 258kts
07-May-19 19:58 43.543323 -115.863654 320 28104ft 256kts
07-May-19 19:59 43.589185 -115.939153 320 28055ft 257kts
07-May-19 20:00 43.634798 -116.014524 321 28054ft 255kts
07-May-19 20:01 43.680221 -116.089665 321 28049ft 253kts
07-May-19 20:02 43.725087 -116.164103 321 28050ft 252kts
07-May-19 20:03 43.770206 -116.239150 321 28055ft 252kts
07-May-19 20:04 43.815068 -116.313989 321 28061ft 251kts
07-May-19 20:05 43.859686 -116.388595 321 28065ft 252kts
07-May-19 20:06 43.904542 -116.463832 321 28061ft 252kts
07-May-19 20:07 43.949752 -116.539843 321 28063ft 251kts
07-May-19 20:08 43.994953 -116.616024 321 28066ft 251kts
07-May-19 20:09 44.039071 -116.690564 320 28115ft 250kts
07-May-19 20:10 44.083806 -116.766381 320 28115ft 250kts
07-May-19 20:11 44.127125 -116.839968 320 28137ft 252kts
07-May-19 20:12 44.172059 -116.916471 319 28135ft 253kts
07-May-19 20:13 44.217166 -116.993545 319 28137ft 253kts
07-May-19 20:14 44.262199 -117.070656 319 28136ft 253kts
07-May-19 20:15 44.307366 -117.148228 319 28121ft 253kts
07-May-19 20:16 44.352207 -117.225392 319 28120ft 252kts
07-May-19 20:17 44.396997 -117.302731 319 28140ft 252kts
07-May-19 20:18 44.441421 -117.379641 319 28165ft 251kts
07-May-19 20:19 44.486058 -117.457091 319 28182ft 251kts
07-May-19 20:20 44.530437 -117.534326 319 28182ft 252kts
07-May-19 20:21 44.574940 -117.611987 319 28181ft 252kts
07-May-19 20:22 44.618590 -117.688365 318 28181ft 254kts
07-May-19 20:23 44.662950 -117.766188 318 28180ft 254kts
07-May-19 20:24 44.707150 -117.843945 318 28179ft 254kts
07-May-19 20:25 44.751114 -117.921500 318 28178ft 253kts
07-May-19 20:26 44.794973 -117.999075 318 28177ft 253kts
07-May-19 20:27 44.839073 -118.077274 318 28177ft 255kts
07-May-19 20:28 44.883426 -118.156168 318 28176ft 256kts
07-May-19 20:29 44.927623 -118.234991 317 28174ft 255kts
07-May-19 20:30 44.971520 -118.313500 317 28173ft 255kts
07-May-19 20:31 45.017616 -118.389353 321 28173ft 252kts
07-May-19 20:32 45.065627 -118.461951 321 28173ft 252kts
07-May-19 20:33 45.112285 -118.532759 321 28345ft 246kts
07-May-19 20:34 45.157450 -118.601428 322 28948ft 235kts
07-May-19 20:35 45.199731 -118.665897 322 29987ft 220kts
07-May-19 20:36 45.243044 -118.731943 321 30155ft 238kts
07-May-19 20:37 45.289006 -118.802386 320 30144ft 247kts
07-May-19 20:38 45.336287 -118.875011 320 30141ft 250kts
07-May-19 20:39 45.383746 -118.948098 320 30139ft 251kts
07-May-19 20:40 45.431314 -119.021529 320 30138ft 252kts
07-May-19 20:41 45.478690 -119.094864 320 30132ft 252kts
07-May-19 20:42 45.526276 -119.168705 319 30123ft 253kts
07-May-19 20:43 45.574099 -119.243142 319 30113ft 253kts
07-May-19 20:44 45.621585 -119.317230 319 30106ft 253kts
07-May-19 20:45 45.669415 -119.392089 319 30105ft 253kts
07-May-19 20:46 45.716991 -119.466733 319 30105ft 253kts
07-May-19 20:47 45.764667 -119.541745 319 30104ft 254kts
07-May-19 20:48 45.812037 -119.616466 318 30103ft 254kts
07-May-19 20:49 45.858825 -119.690493 318 30105ft 254kts
07-May-19 20:50 45.906423 -119.765966 317 30103ft 255kts
07-May-19 20:51 45.954146 -119.841895 318 30103ft 255kts
07-May-19 20:52 46.001665 -119.917694 318 30102ft 255kts
07-May-19 20:53 46.049355 -119.993974 318 30101ft 255kts
07-May-19 20:54 46.096637 -120.069812 318 30108ft 254kts
07-May-19 20:55 46.143572 -120.145297 318 30135ft 256kts
07-May-19 20:56 46.191140 -120.222018 318 30140ft 257kts
07-May-19 20:57 46.238888 -120.299235 317 30140ft 257kts
07-May-19 20:58 46.286697 -120.376789 317 30139ft 258kts
07-May-19 20:59 46.334349 -120.454304 317 30138ft 257kts
07-May-19 21:00 46.381906 -120.531871 317 30154ft 258kts
07-May-19 21:01 46.429511 -120.609746 317 30155ft 258kts
07-May-19 21:02 46.476091 -120.686170 316 30157ft 258kts
07-May-19 21:03 46.523714 -120.764517 316 30156ft 259kts
07-May-19 21:04 46.571324 -120.843054 316 30155ft 259kts
07-May-19 21:05 46.619267 -120.922408 316 30071ft 260kts
07-May-19 21:06 46.667022 -121.001653 316 30070ft 260kts
07-May-19 21:07 46.714740 -121.081077 316 30070ft 260kts
07-May-19 21:08 46.762292 -121.160449 316 30075ft 260kts
07-May-19 21:10 46.809866 -121.240092 316 30088ft 260kts
07-May-19 21:11 46.857443 -121.319975 316 30122ft 259kts
07-May-19 21:12 46.904750 -121.399634 316 30028ft 264kts
07-May-19 21:13 46.955524 -121.485418 315 28712ft 288kts
07-May-19 21:14 47.008534 -121.575269 315 27393ft 293kts
07-May-19 21:15 47.059638 -121.662176 314 26127ft 279kts
07-May-19 21:16 47.107633 -121.744001 314 24975ft 275kts
07-May-19 21:17 47.156848 -121.828177 314 23803ft 274kts
07-May-19 21:18 47.206057 -121.912627 314 22604ft 274kts
07-May-19 21:19 47.254909 -121.996738 314 21398ft 264kts
07-May-19 21:20 47.302056 -122.078114 314 20249ft 260kts
07-May-19 21:21 47.347362 -122.156576 314 19133ft 250kts
07-May-19 21:22 47.391979 -122.234066 315 18043ft 248kts
07-May-19 21:23 47.436503 -122.311492 315 17201ft 247kts
07-May-19 21:24 47.482922 -122.390527 314 15965ft 260kts
07-May-19 21:25 47.528983 -122.469222 314 14734ft 251kts
07-May-19 21:26 47.574273 -122.546747 314 13626ft 250kts
07-May-19 21:27 47.632788 -122.589783 337 13162ft 236kts
07-May-19 21:28 47.693268 -122.627978 338 12646ft 236kts
07-May-19 21:29 47.752569 -122.665451 337 11925ft 244kts
07-May-19 21:30 47.816935 -122.706247 336 10576ft 256kts
07-May-19 21:31 47.882741 -122.748084 336 9418ft 259kts
07-May-19 21:32 47.947594 -122.789432 336 8294ft 249kts
07-May-19 21:32 48.000376 -122.823161 336 7386ft 248kts
07-May-19 21:34 48.044005 -122.914310 284 6060ft 252kts
07-May-19 21:34 48.058596 -122.999364 284 5107ft 252kts
07-May-19 21:36 48.078878 -123.117944 283 3890ft 245kts
07-May-19 21:36 48.074423 -123.196776 282 3816ft 227kts
07-May-19 21:38 48.087442 -123.304199 275 3556ft 220kts
07-May-19 21:38 48.097485 -123.378939 283 2307ft 217kts
07-May-19 21:39 48.109849 -123.447330 285 1126ft 106kts
07-May-19 21:40 48.115700 -123.481119 285 486ft 77kts
07-May-19 21:41 48.118165 -123.501672 101 266ft 11kts
07-May-19 21:42 48.117691 -123.498755 104 268ft 10kts
07-May-19 21:43 48.116981 -123.498351 4 269ft 0kts
07-May-19 21:44 48.116981 -123.498351 4 269ft 0kts

Navigation Log

Ident Type
Flight plan parsing failed, navigation log unavailable